Terminal Aerodrome Forecast
Issued by NWS

Home | Current Version | Previous Version | Text Only | Print | Product List | Glossary On
Versions: 1 2 3 4 5 6 7 8 9 10 11 12 13
000
FTUS45 KPSR 211121
TAFIPL
TAF
KIPL 211121Z 2112/2212 27014KT P6SM SKC
     FM211600 27016G25KT P6SM SKC
     FM212100 27025G35KT P6SM SKC
     FM220700 28014KT P6SM SKC=

USA.gov is the U.S. government's official web portal to all federal, state and local government web resources and services.